TimeMDT,TemperatureF,Dew PointF,Humidity,Sea Level PressureIn,VisibilityMPH,Wind Direction,Wind SpeedMPH,Gust SpeedMPH,PrecipitationIn,Events,Conditions,WindDirDegrees,DateUTC
12:53 AM,81.0,42.1,25,29.93,10.0,NW,16.1,-,N/A,,Clear,320,2013-08-19 06:53:00
1:53 AM,79.0,42.1,27,29.95,10.0,NNW,11.5,-,N/A,,Clear,330,2013-08-19 07:53:00
2:53 AM,73.9,45.0,35,29.94,10.0,WSW,6.9,-,N/A,,Clear,250,2013-08-19 08:53:00
3:53 AM,75.0,44.1,33,29.95,10.0,West,10.4,-,N/A,,Clear,270,2013-08-19 09:53:00
4:53 AM,66.0,48.0,52,29.96,10.0,WSW,5.8,-,N/A,,Clear,240,2013-08-19 10:53:00
5:53 AM,64.0,48.0,56,29.97,10.0,SW,4.6,-,N/A,,Clear,220,2013-08-19 11:53:00
6:53 AM,64.9,46.9,52,29.97,10.0,WSW,4.6,-,N/A,,Clear,250,2013-08-19 12:53:00
7:53 AM,66.9,48.9,52,29.99,10.0,Calm,Calm,-,N/A,,Clear,0,2013-08-19 13:53:00
8:53 AM,70.0,48.9,47,30.00,10.0,Calm,Calm,-,N/A,,Clear,0,2013-08-19 14:53:00
9:53 AM,75.9,48.9,38,30.00,10.0,Calm,Calm,-,N/A,,Clear,0,2013-08-19 15:53:00
10:53 AM,82.0,46.9,29,29.99,10.0,Variable,3.5,-,N/A,,Clear,0,2013-08-19 16:53:00
11:53 AM,84.9,48.0,28,29.98,10.0,Calm,Calm,-,N/A,,Clear,0,2013-08-19 17:53:00
12:53 PM,88.0,54.0,31,29.97,10.0,South,6.9,-,N/A,,Clear,170,2013-08-19 18:53:00
1:53 PM,91.0,48.9,23,29.94,10.0,SSE,3.5,-,N/A,,Clear,160,2013-08-19 19:53:00
2:53 PM,93.0,46.0,20,29.92,10.0,Calm,Calm,-,N/A,,Clear,0,2013-08-19 20:53:00
3:53 PM,93.9,46.0,19,29.89,10.0,SSE,4.6,-,N/A,,Clear,150,2013-08-19 21:53:00
4:53 PM,93.0,48.0,21,29.87,10.0,South,4.6,-,N/A,,Clear,170,2013-08-19 22:53:00
5:53 PM,95.0,45.0,18,29.85,10.0,Variable,3.5,-,N/A,,Clear,0,2013-08-19 23:53:00
6:53 PM,93.9,48.0,21,29.83,10.0,ESE,3.5,-,N/A,,Clear,120,2013-08-20 00:53:00
7:53 PM,91.0,52.0,26,29.82,10.0,Calm,Calm,-,N/A,,Clear,0,2013-08-20 01:53:00
8:53 PM,82.9,55.0,38,29.83,10.0,Calm,Calm,-,N/A,,Clear,0,2013-08-20 02:53:00
9:53 PM,82.9,45.0,26,29.84,10.0,WNW,8.1,-,N/A,,Clear,290,2013-08-20 03:53:00
10:53 PM,84.0,41.0,22,29.84,10.0,NW,12.7,19.6,N/A,,Clear,320,2013-08-20 04:53:00
11:53 PM,82.0,42.1,24,29.85,10.0,NNW,17.3,23.0,N/A,,Clear,330,2013-08-20 05:53:00